sensor_id;sensor_type;location;lat;lon;timestamp;temperature;humidity
83596;HTU21D;73564;45.026;38.952;2023-11-19T00:00:22;11.16;70.07
83596;HTU21D;73564;45.026;38.952;2023-11-19T00:02:49;11.12;69.84
83596;HTU21D;73564;45.026;38.952;2023-11-19T00:05:15;11.04;69.54
83596;HTU21D;73564;45.026;38.952;2023-11-19T00:07:41;10.99;69.18
83596;HTU21D;73564;45.026;38.952;2023-11-19T00:10:10;10.96;69.00
83596;HTU21D;73564;45.026;38.952;2023-11-19T00:12:38;10.92;68.91
83596;HTU21D;73564;45.026;38.952;2023-11-19T00:15:04;10.84;68.89
83596;HTU21D;73564;45.026;38.952;2023-11-19T00:17:30;10.85;69.39
83596;HTU21D;73564;45.026;38.952;2023-11-19T00:19:56;10.83;69.29
83596;HTU21D;73564;45.026;38.952;2023-11-19T00:22:22;10.82;69.16
83596;HTU21D;73564;45.026;38.952;2023-11-19T00:24:48;10.80;69.05
83596;HTU21D;73564;45.026;38.952;2023-11-19T00:27:14;10.77;68.46
83596;HTU21D;73564;45.026;38.952;2023-11-19T00:29:42;10.77;69.03
83596;HTU21D;73564;45.026;38.952;2023-11-19T00:32:10;10.72;68.83
83596;HTU21D;73564;45.026;38.952;2023-11-19T00:34:37;10.75;69.07
83596;HTU21D;73564;45.026;38.952;2023-11-19T00:37:03;10.77;69.10
83596;HTU21D;73564;45.026;38.952;2023-11-19T00:39:29;10.77;69.17
83596;HTU21D;73564;45.026;38.952;2023-11-19T00:41:55;10.79;68.88
83596;HTU21D;73564;45.026;38.952;2023-11-19T00:44:21;10.78;68.93
83596;HTU21D;73564;45.026;38.952;2023-11-19T00:46:47;10.81;69.05
83596;HTU21D;73564;45.026;38.952;2023-11-19T00:49:13;10.81;68.87
83596;HTU21D;73564;45.026;38.952;2023-11-19T00:51:39;10.81;68.68
83596;HTU21D;73564;45.026;38.952;2023-11-19T00:54:05;10.83;69.03
83596;HTU21D;73564;45.026;38.952;2023-11-19T00:56:31;10.82;68.16
83596;HTU21D;73564;45.026;38.952;2023-11-19T00:58:57;10.82;68.46
83596;HTU21D;73564;45.026;38.952;2023-11-19T01:01:22;10.79;68.55
83596;HTU21D;73564;45.026;38.952;2023-11-19T01:03:48;10.79;68.65
83596;HTU21D;73564;45.026;38.952;2023-11-19T01:06:14;10.81;68.67
83596;HTU21D;73564;45.026;38.952;2023-11-19T01:08:42;10.80;68.40
83596;HTU21D;73564;45.026;38.952;2023-11-19T01:11:20;10.80;68.19
83596;HTU21D;73564;45.026;38.952;2023-11-19T01:13:46;10.79;67.90
83596;HTU21D;73564;45.026;38.952;2023-11-19T01:16:12;10.78;68.39
83596;HTU21D;73564;45.026;38.952;2023-11-19T01:18:38;10.77;68.33
83596;HTU21D;73564;45.026;38.952;2023-11-19T01:21:05;10.75;68.40
83596;HTU21D;73564;45.026;38.952;2023-11-19T01:23:31;10.72;68.63
83596;HTU21D;73564;45.026;38.952;2023-11-19T01:25:58;10.71;68.83
83596;HTU21D;73564;45.026;38.952;2023-11-19T01:28:24;10.70;68.70
83596;HTU21D;73564;45.026;38.952;2023-11-19T01:30:53;10.70;68.68
83596;HTU21D;73564;45.026;38.952;2023-11-19T01:33:19;10.67;68.56
83596;HTU21D;73564;45.026;38.952;2023-11-19T01:35:45;10.65;68.52
83596;HTU21D;73564;45.026;38.952;2023-11-19T01:38:11;10.63;68.58
83596;HTU21D;73564;45.026;38.952;2023-11-19T01:40:37;10.59;68.83
83596;HTU21D;73564;45.026;38.952;2023-11-19T01:43:03;10.59;68.96
83596;HTU21D;73564;45.026;38.952;2023-11-19T01:45:30;10.62;68.93
83596;HTU21D;73564;45.026;38.952;2023-11-19T01:47:57;10.59;68.94
83596;HTU21D;73564;45.026;38.952;2023-11-19T01:50:24;10.57;68.91
83596;HTU21D;73564;45.026;38.952;2023-11-19T01:52:53;10.59;69.05
83596;HTU21D;73564;45.026;38.952;2023-11-19T01:55:20;10.56;69.07
83596;HTU21D;73564;45.026;38.952;2023-11-19T01:57:48;10.57;69.31
83596;HTU21D;73564;45.026;38.952;2023-11-19T02:00:14;10.54;70.00
83596;HTU21D;73564;45.026;38.952;2023-11-19T02:02:52;10.54;69.54
83596;HTU21D;73564;45.026;38.952;2023-11-19T02:05:18;10.53;69.71
83596;HTU21D;73564;45.026;38.952;2023-11-19T02:07:44;10.52;69.86
83596;HTU21D;73564;45.026;38.952;2023-11-19T02:10:12;10.50;69.98
83596;HTU21D;73564;45.026;38.952;2023-11-19T02:12:40;10.48;69.94
83596;HTU21D;73564;45.026;38.952;2023-11-19T02:15:10;10.42;70.20
83596;HTU21D;73564;45.026;38.952;2023-11-19T02:17:36;10.39;70.31
83596;HTU21D;73564;45.026;38.952;2023-11-19T02:20:06;10.36;70.71
83596;HTU21D;73564;45.026;38.952;2023-11-19T02:22:37;10.33;71.28
83596;HTU21D;73564;45.026;38.952;2023-11-19T02:25:30;10.28;72.20
83596;HTU21D;73564;45.026;38.952;2023-11-19T02:28:02;10.22;72.46
83596;HTU21D;73564;45.026;38.952;2023-11-19T02:30:29;10.16;72.60
83596;HTU21D;73564;45.026;38.952;2023-11-19T02:32:58;10.12;73.20
83596;HTU21D;73564;45.026;38.952;2023-11-19T02:35:27;10.11;73.01
83596;HTU21D;73564;45.026;38.952;2023-11-19T02:37:56;10.09;73.86
83596;HTU21D;73564;45.026;38.952;2023-11-19T02:40:23;10.07;74.30
83596;HTU21D;73564;45.026;38.952;2023-11-19T02:42:50;10.03;75.01
83596;HTU21D;73564;45.026;38.952;2023-11-19T02:45:16;10.00;74.32
83596;HTU21D;73564;45.026;38.952;2023-11-19T02:47:43;9.99;74.58
83596;HTU21D;73564;45.026;38.952;2023-11-19T02:50:10;9.97;75.28
83596;HTU21D;73564;45.026;38.952;2023-11-19T02:52:44;9.95;75.89
83596;HTU21D;73564;45.026;38.952;2023-11-19T02:55:11;9.94;76.42
83596;HTU21D;73564;45.026;38.952;2023-11-19T02:57:42;9.93;75.45
83596;HTU21D;73564;45.026;38.952;2023-11-19T03:00:16;9.90;76.10
83596;HTU21D;73564;45.026;38.952;2023-11-19T03:02:43;9.86;77.37
83596;HTU21D;73564;45.026;38.952;2023-11-19T03:05:14;9.88;76.28
83596;HTU21D;73564;45.026;38.952;2023-11-19T03:07:43;9.86;76.98
83596;HTU21D;73564;45.026;38.952;2023-11-19T03:10:10;9.85;76.46
83596;HTU21D;73564;45.026;38.952;2023-11-19T03:12:40;9.85;76.67
83596;HTU21D;73564;45.026;38.952;2023-11-19T03:15:07;9.85;76.86
83596;HTU21D;73564;45.026;38.952;2023-11-19T03:17:34;9.86;76.69
83596;HTU21D;73564;45.026;38.952;2023-11-19T03:20:01;9.86;78.07
83596;HTU21D;73564;45.026;38.952;2023-11-19T03:22:26;9.88;77.01
83596;HTU21D;73564;45.026;38.952;2023-11-19T03:24:52;9.86;77.22
83596;HTU21D;73564;45.026;38.952;2023-11-19T03:27:19;9.86;77.45
83596;HTU21D;73564;45.026;38.952;2023-11-19T03:29:45;9.90;77.15
83596;HTU21D;73564;45.026;38.952;2023-11-19T03:32:11;9.90;76.99
83596;HTU21D;73564;45.026;38.952;2023-11-19T03:34:37;9.90;77.15
83596;HTU21D;73564;45.026;38.952;2023-11-19T03:37:04;9.91;77.15
83596;HTU21D;73564;45.026;38.952;2023-11-19T03:39:29;9.93;77.18
83596;HTU21D;73564;45.026;38.952;2023-11-19T03:41:55;9.94;77.21
83596;HTU21D;73564;45.026;38.952;2023-11-19T03:44:21;9.96;77.28
83596;HTU21D;73564;45.026;38.952;2023-11-19T03:46:47;9.94;76.82
83596;HTU21D;73564;45.026;38.952;2023-11-19T03:49:13;9.96;76.70
83596;HTU21D;73564;45.026;38.952;2023-11-19T03:51:39;9.94;77.31
83596;HTU21D;73564;45.026;38.952;2023-11-19T03:54:06;9.94;76.80
83596;HTU21D;73564;45.026;38.952;2023-11-19T03:56:32;9.95;76.60
83596;HTU21D;73564;45.026;38.952;2023-11-19T03:58:58;9.94;77.16
83596;HTU21D;73564;45.026;38.952;2023-11-19T04:01:24;9.96;76.63
83596;HTU21D;73564;45.026;38.952;2023-11-19T04:03:50;9.97;76.84
83596;HTU21D;73564;45.026;38.952;2023-11-19T04:06:16;9.97;76.65
83596;HTU21D;73564;45.026;38.952;2023-11-19T04:08:42;9.96;76.42
83596;HTU21D;73564;45.026;38.952;2023-11-19T04:11:08;9.98;76.53
83596;HTU21D;73564;45.026;38.952;2023-11-19T04:13:34;9.98;76.34
83596;HTU21D;73564;45.026;38.952;2023-11-19T04:16:00;9.99;76.10
83596;HTU21D;73564;45.026;38.952;2023-11-19T04:18:26;9.99;76.28
83596;HTU21D;73564;45.026;38.952;2023-11-19T04:20:52;10.00;76.28
83596;HTU21D;73564;45.026;38.952;2023-11-19T04:23:18;9.99;76.05
83596;HTU21D;73564;45.026;38.952;2023-11-19T04:25:44;10.00;75.83
83596;HTU21D;73564;45.026;38.952;2023-11-19T04:28:10;10.01;75.74
83596;HTU21D;73564;45.026;38.952;2023-11-19T04:30:36;10.06;75.70
83596;HTU21D;73564;45.026;38.952;2023-11-19T04:33:03;10.07;75.83
83596;HTU21D;73564;45.026;38.952;2023-11-19T04:35:29;10.07;75.77
83596;HTU21D;73564;45.026;38.952;2023-11-19T04:37:55;10.07;75.69
83596;HTU21D;73564;45.026;38.952;2023-11-19T04:40:23;10.07;75.72
83596;HTU21D;73564;45.026;38.952;2023-11-19T04:42:49;10.06;75.84
83596;HTU21D;73564;45.026;38.952;2023-11-19T04:45:15;10.04;75.86
83596;HTU21D;73564;45.026;38.952;2023-11-19T04:47:42;10.04;75.95
83596;HTU21D;73564;45.026;38.952;2023-11-19T04:50:08;10.03;76.44
83596;HTU21D;73564;45.026;38.952;2023-11-19T04:52:38;10.00;76.08
83596;HTU21D;73564;45.026;38.952;2023-11-19T04:55:12;9.99;76.19
83596;HTU21D;73564;45.026;38.952;2023-11-19T04:57:37;9.97;76.44
83596;HTU21D;73564;45.026;38.952;2023-11-19T05:00:05;9.93;76.95
83596;HTU21D;73564;45.026;38.952;2023-11-19T05:02:31;9.85;77.21
83596;HTU21D;73564;45.026;38.952;2023-11-19T05:04:57;9.80;77.42
83596;HTU21D;73564;45.026;38.952;2023-11-19T05:07:22;9.78;76.95
83596;HTU21D;73564;45.026;38.952;2023-11-19T05:09:49;9.77;77.08
83596;HTU21D;73564;45.026;38.952;2023-11-19T05:12:14;9.75;76.95
83596;HTU21D;73564;45.026;38.952;2023-11-19T05:14:40;9.72;77.22
83596;HTU21D;73564;45.026;38.952;2023-11-19T05:17:13;9.69;77.26
83596;HTU21D;73564;45.026;38.952;2023-11-19T05:19:39;9.68;76.99
83596;HTU21D;73564;45.026;38.952;2023-11-19T05:22:05;9.65;77.19
83596;HTU21D;73564;45.026;38.952;2023-11-19T05:24:32;9.63;77.14
83596;HTU21D;73564;45.026;38.952;2023-11-19T05:26:58;9.60;77.19
83596;HTU21D;73564;45.026;38.952;2023-11-19T05:29:23;9.56;77.70
83596;HTU21D;73564;45.026;38.952;2023-11-19T05:31:50;9.52;77.83
83596;HTU21D;73564;45.026;38.952;2023-11-19T05:34:16;9.52;77.46
83596;HTU21D;73564;45.026;38.952;2023-11-19T05:36:42;9.46;77.78
83596;HTU21D;73564;45.026;38.952;2023-11-19T05:39:07;9.42;77.86
83596;HTU21D;73564;45.026;38.952;2023-11-19T05:41:34;9.40;77.94
83596;HTU21D;73564;45.026;38.952;2023-11-19T05:44:00;9.32;78.50
83596;HTU21D;73564;45.026;38.952;2023-11-19T05:46:26;9.32;78.92
83596;HTU21D;73564;45.026;38.952;2023-11-19T05:48:52;9.33;78.64
83596;HTU21D;73564;45.026;38.952;2023-11-19T05:51:18;9.25;79.42
83596;HTU21D;73564;45.026;38.952;2023-11-19T05:53:44;9.20;79.43
83596;HTU21D;73564;45.026;38.952;2023-11-19T05:56:13;9.14;79.31
83596;HTU21D;73564;45.026;38.952;2023-11-19T05:58:41;9.12;79.31
83596;HTU21D;73564;45.026;38.952;2023-11-19T06:01:07;9.09;79.45
83596;HTU21D;73564;45.026;38.952;2023-11-19T06:03:33;9.07;79.83
83596;HTU21D;73564;45.026;38.952;2023-11-19T06:05:59;9.06;79.31
83596;HTU21D;73564;45.026;38.952;2023-11-19T06:08:25;9.07;79.34
83596;HTU21D;73564;45.026;38.952;2023-11-19T06:10:52;9.03;80.07
83596;HTU21D;73564;45.026;38.952;2023-11-19T06:13:18;9.04;79.69
83596;HTU21D;73564;45.026;38.952;2023-11-19T06:15:45;9.03;79.51
83596;HTU21D;73564;45.026;38.952;2023-11-19T06:18:11;9.00;79.60
83596;HTU21D;73564;45.026;38.952;2023-11-19T06:20:40;9.00;79.45
83596;HTU21D;73564;45.026;38.952;2023-11-19T06:23:06;9.03;79.38
83596;HTU21D;73564;45.026;38.952;2023-11-19T06:25:32;9.05;79.11
83596;HTU21D;73564;45.026;38.952;2023-11-19T06:28:00;9.07;79.11
83596;HTU21D;73564;45.026;38.952;2023-11-19T06:30:26;9.07;78.97
83596;HTU21D;73564;45.026;38.952;2023-11-19T06:32:54;9.03;80.69
83596;HTU21D;73564;45.026;38.952;2023-11-19T06:35:20;9.04;79.17
83596;HTU21D;73564;45.026;38.952;2023-11-19T06:37:45;9.07;79.15
83596;HTU21D;73564;45.026;38.952;2023-11-19T06:40:12;9.09;79.83
83596;HTU21D;73564;45.026;38.952;2023-11-19T06:42:37;9.11;80.04
83596;HTU21D;73564;45.026;38.952;2023-11-19T06:45:04;9.15;79.26
83596;HTU21D;73564;45.026;38.952;2023-11-19T06:47:31;9.14;82.91
83596;HTU21D;73564;45.026;38.952;2023-11-19T06:49:58;9.20;79.84
83596;HTU21D;73564;45.026;38.952;2023-11-19T06:52:24;9.31;79.67
83596;HTU21D;73564;45.026;38.952;2023-11-19T06:54:50;9.42;79.72
83596;HTU21D;73564;45.026;38.952;2023-11-19T06:57:16;9.50;79.16
83596;HTU21D;73564;45.026;38.952;2023-11-19T06:59:43;9.51;79.00
83596;HTU21D;73564;45.026;38.952;2023-11-19T07:02:08;9.50;79.02
83596;HTU21D;73564;45.026;38.952;2023-11-19T07:04:34;9.52;79.52
83596;HTU21D;73564;45.026;38.952;2023-11-19T07:07:00;9.55;79.24
83596;HTU21D;73564;45.026;38.952;2023-11-19T07:09:27;9.52;78.96
83596;HTU21D;73564;45.026;38.952;2023-11-19T07:11:53;9.49;79.49
83596;HTU21D;73564;45.026;38.952;2023-11-19T07:14:19;9.48;79.42
83596;HTU21D;73564;45.026;38.952;2023-11-19T07:16:45;9.52;79.14
83596;HTU21D;73564;45.026;38.952;2023-11-19T07:19:12;9.55;78.72
83596;HTU21D;73564;45.026;38.952;2023-11-19T07:21:41;9.55;79.08
83596;HTU21D;73564;45.026;38.952;2023-11-19T07:24:10;9.52;78.45
83596;HTU21D;73564;45.026;38.952;2023-11-19T07:26:48;9.51;78.90
83596;HTU21D;73564;45.026;38.952;2023-11-19T07:29:14;9.49;78.58
83596;HTU21D;73564;45.026;38.952;2023-11-19T07:31:42;9.44;79.34
83596;HTU21D;73564;45.026;38.952;2023-11-19T07:34:10;9.41;79.03
83596;HTU21D;73564;45.026;38.952;2023-11-19T07:36:37;9.39;80.81
83596;HTU21D;73564;45.026;38.952;2023-11-19T07:39:04;9.45;79.42
83596;HTU21D;73564;45.026;38.952;2023-11-19T07:41:31;9.47;79.69
83596;HTU21D;73564;45.026;38.952;2023-11-19T07:43:57;9.50;78.98
83596;HTU21D;73564;45.026;38.952;2023-11-19T07:46:23;9.52;78.83
83596;HTU21D;73564;45.026;38.952;2023-11-19T07:48:49;9.54;78.69
83596;HTU21D;73564;45.026;38.952;2023-11-19T07:51:15;9.55;78.66
83596;HTU21D;73564;45.026;38.952;2023-11-19T07:53:41;9.55;78.82
83596;HTU21D;73564;45.026;38.952;2023-11-19T07:56:08;9.59;78.82
83596;HTU21D;73564;45.026;38.952;2023-11-19T07:58:34;9.64;78.66
83596;HTU21D;73564;45.026;38.952;2023-11-19T08:01:00;9.68;78.46
83596;HTU21D;73564;45.026;38.952;2023-11-19T08:03:27;9.71;79.03
83596;HTU21D;73564;45.026;38.952;2023-11-19T08:05:55;9.74;77.90
83596;HTU21D;73564;45.026;38.952;2023-11-19T08:08:24;9.71;78.05
83596;HTU21D;73564;45.026;38.952;2023-11-19T08:10:50;9.72;77.95
83596;HTU21D;73564;45.026;38.952;2023-11-19T08:13:20;9.68;77.95
83596;HTU21D;73564;45.026;38.952;2023-11-19T08:15:46;9.67;78.18
83596;HTU21D;73564;45.026;38.952;2023-11-19T08:18:12;9.65;78.31
83596;HTU21D;73564;45.026;38.952;2023-11-19T08:20:39;9.62;78.29
83596;HTU21D;73564;45.026;38.952;2023-11-19T08:23:05;9.61;78.53
83596;HTU21D;73564;45.026;38.952;2023-11-19T08:25:31;9.59;79.08
83596;HTU21D;73564;45.026;38.952;2023-11-19T08:27:59;9.55;79.12
83596;HTU21D;73564;45.026;38.952;2023-11-19T08:30:26;9.56;79.76
83596;HTU21D;73564;45.026;38.952;2023-11-19T08:32:52;9.63;80.36
83596;HTU21D;73564;45.026;38.952;2023-11-19T08:35:18;9.69;79.45
83596;HTU21D;73564;45.026;38.952;2023-11-19T08:37:44;9.72;79.73
83596;HTU21D;73564;45.026;38.952;2023-11-19T08:40:11;9.70;78.96
83596;HTU21D;73564;45.026;38.952;2023-11-19T08:42:40;9.66;79.20
83596;HTU21D;73564;45.026;38.952;2023-11-19T08:45:07;9.61;79.53
83596;HTU21D;73564;45.026;38.952;2023-11-19T08:47:36;9.57;79.79
83596;HTU21D;73564;45.026;38.952;2023-11-19T08:50:02;9.60;80.06
83596;HTU21D;73564;45.026;38.952;2023-11-19T08:52:32;9.59;81.35
83596;HTU21D;73564;45.026;38.952;2023-11-19T08:54:58;9.62;80.32
83596;HTU21D;73564;45.026;38.952;2023-11-19T08:57:24;9.60;80.07
83596;HTU21D;73564;45.026;38.952;2023-11-19T08:59:50;9.60;80.27
83596;HTU21D;73564;45.026;38.952;2023-11-19T09:02:16;9.63;80.39
83596;HTU21D;73564;45.026;38.952;2023-11-19T09:04:42;9.61;80.20
83596;HTU21D;73564;45.026;38.952;2023-11-19T09:07:08;9.62;80.25
83596;HTU21D;73564;45.026;38.952;2023-11-19T09:09:35;9.63;80.36
83596;HTU21D;73564;45.026;38.952;2023-11-19T09:12:02;9.63;80.72
83596;HTU21D;73564;45.026;38.952;2023-11-19T09:14:31;9.62;80.02
83596;HTU21D;73564;45.026;38.952;2023-11-19T09:16:57;9.60;80.28
83596;HTU21D;73564;45.026;38.952;2023-11-19T09:19:24;9.60;80.34
83596;HTU21D;73564;45.026;38.952;2023-11-19T09:21:50;9.63;80.62
83596;HTU21D;73564;45.026;38.952;2023-11-19T09:24:16;9.66;80.70
83596;HTU21D;73564;45.026;38.952;2023-11-19T09:26:42;9.72;80.82
83596;HTU21D;73564;45.026;38.952;2023-11-19T09:29:08;9.77;80.51
83596;HTU21D;73564;45.026;38.952;2023-11-19T09:31:34;9.77;79.98
83596;HTU21D;73564;45.026;38.952;2023-11-19T09:34:00;9.76;80.56
83596;HTU21D;73564;45.026;38.952;2023-11-19T09:36:26;9.76;80.59
83596;HTU21D;73564;45.026;38.952;2023-11-19T09:38:52;9.72;80.49
83596;HTU21D;73564;45.026;38.952;2023-11-19T09:41:18;9.75;80.79
83596;HTU21D;73564;45.026;38.952;2023-11-19T09:43:45;9.79;81.07
83596;HTU21D;73564;45.026;38.952;2023-11-19T09:46:13;9.82;80.75
83596;HTU21D;73564;45.026;38.952;2023-11-19T09:48:41;9.85;80.57
83596;HTU21D;73564;45.026;38.952;2023-11-19T09:51:09;9.83;80.98
83596;HTU21D;73564;45.026;38.952;2023-11-19T09:53:36;9.85;81.53
83596;HTU21D;73564;45.026;38.952;2023-11-19T09:56:06;9.93;81.14
83596;HTU21D;73564;45.026;38.952;2023-11-19T09:58:33;9.92;81.04
83596;HTU21D;73564;45.026;38.952;2023-11-19T10:01:00;9.94;82.13
83596;HTU21D;73564;45.026;38.952;2023-11-19T10:03:35;9.95;81.77
83596;HTU21D;73564;45.026;38.952;2023-11-19T10:06:04;9.95;80.88
83596;HTU21D;73564;45.026;38.952;2023-11-19T10:08:32;9.91;81.16
83596;HTU21D;73564;45.026;38.952;2023-11-19T10:10:58;9.91;81.81
83596;HTU21D;73564;45.026;38.952;2023-11-19T10:13:28;9.97;81.33
83596;HTU21D;73564;45.026;38.952;2023-11-19T10:15:57;10.12;82.71
83596;HTU21D;73564;45.026;38.952;2023-11-19T10:18:27;10.30;82.20
83596;HTU21D;73564;45.026;38.952;2023-11-19T10:20:53;10.53;82.62
83596;HTU21D;73564;45.026;38.952;2023-11-19T10:23:20;10.68;84.51
83596;HTU21D;73564;45.026;38.952;2023-11-19T10:25:46;10.79;81.89
83596;HTU21D;73564;45.026;38.952;2023-11-19T10:28:15;10.95;82.47
83596;HTU21D;73564;45.026;38.952;2023-11-19T10:30:42;10.99;80.24
83596;HTU21D;73564;45.026;38.952;2023-11-19T10:33:14;10.94;80.13
83596;HTU21D;73564;45.026;38.952;2023-11-19T10:35:55;10.88;80.88
83596;HTU21D;73564;45.026;38.952;2023-11-19T10:38:25;10.80;80.46
83596;HTU21D;73564;45.026;38.952;2023-11-19T10:40:52;10.74;80.39
83596;HTU21D;73564;45.026;38.952;2023-11-19T10:43:19;10.69;80.72
83596;HTU21D;73564;45.026;38.952;2023-11-19T10:45:45;10.65;81.02
83596;HTU21D;73564;45.026;38.952;2023-11-19T10:48:11;10.60;80.93
83596;HTU21D;73564;45.026;38.952;2023-11-19T10:50:40;10.56;81.27
83596;HTU21D;73564;45.026;38.952;2023-11-19T10:53:09;10.51;80.94
83596;HTU21D;73564;45.026;38.952;2023-11-19T10:55:36;10.45;82.04
83596;HTU21D;73564;45.026;38.952;2023-11-19T10:58:05;10.41;81.65
83596;HTU21D;73564;45.026;38.952;2023-11-19T11:00:51;10.37;81.81
83596;HTU21D;73564;45.026;38.952;2023-11-19T11:03:20;10.36;82.03
83596;HTU21D;73564;45.026;38.952;2023-11-19T11:05:51;10.36;82.05
83596;HTU21D;73564;45.026;38.952;2023-11-19T11:08:18;10.31;82.65
83596;HTU21D;73564;45.026;38.952;2023-11-19T11:10:57;10.25;83.19
83596;HTU21D;73564;45.026;38.952;2023-11-19T11:13:27;10.19;82.43
83596;HTU21D;73564;45.026;38.952;2023-11-19T11:15:57;10.15;82.44
83596;HTU21D;73564;45.026;38.952;2023-11-19T11:18:26;10.15;82.97
83596;HTU21D;73564;45.026;38.952;2023-11-19T11:29:14;10.22;83.01
83596;HTU21D;73564;45.026;38.952;2023-11-19T11:34:44;10.16;84.76
83596;HTU21D;73564;45.026;38.952;2023-11-19T11:37:28;10.18;83.90
83596;HTU21D;73564;45.026;38.952;2023-11-19T11:39:57;10.19;84.03
83596;HTU21D;73564;45.026;38.952;2023-11-19T13:26:56;11.58;82.23
83596;HTU21D;73564;45.026;38.952;2023-11-19T13:29:22;11.47;82.41
83596;HTU21D;73564;45.026;38.952;2023-11-19T13:31:48;11.40;82.66
83596;HTU21D;73564;45.026;38.952;2023-11-19T13:34:15;11.31;82.71
83596;HTU21D;73564;45.026;38.952;2023-11-19T13:36:41;11.27;82.89
83596;HTU21D;73564;45.026;38.952;2023-11-19T13:39:07;11.22;82.67
83596;HTU21D;73564;45.026;38.952;2023-11-19T13:41:33;11.15;83.19
83596;HTU21D;73564;45.026;38.952;2023-11-19T13:43:59;11.14;83.29
83596;HTU21D;73564;45.026;38.952;2023-11-19T13:46:25;11.13;82.97
83596;HTU21D;73564;45.026;38.952;2023-11-19T13:48:51;11.13;83.49
83596;HTU21D;73564;45.026;38.952;2023-11-19T13:51:17;11.14;83.84
83596;HTU21D;73564;45.026;38.952;2023-11-19T13:53:43;11.18;83.46
83596;HTU21D;73564;45.026;38.952;2023-11-19T13:56:09;11.20;83.02
83596;HTU21D;73564;45.026;38.952;2023-11-19T13:58:35;11.19;83.81
83596;HTU21D;73564;45.026;38.952;2023-11-19T14:01:02;11.25;83.55
83596;HTU21D;73564;45.026;38.952;2023-11-19T14:03:28;11.24;82.75
83596;HTU21D;73564;45.026;38.952;2023-11-19T14:05:54;11.16;82.55
83596;HTU21D;73564;45.026;38.952;2023-11-19T14:08:21;11.08;82.75
83596;HTU21D;73564;45.026;38.952;2023-11-19T14:10:46;11.03;83.13
83596;HTU21D;73564;45.026;38.952;2023-11-19T14:36:03;12.11;80.46
83596;HTU21D;73564;45.026;38.952;2023-11-19T14:38:29;11.96;81.23
83596;HTU21D;73564;45.026;38.952;2023-11-19T14:40:55;11.86;82.31
83596;HTU21D;73564;45.026;38.952;2023-11-19T14:43:21;11.78;82.20
83596;HTU21D;73564;45.026;38.952;2023-11-19T14:45:47;11.69;82.19
83596;HTU21D;73564;45.026;38.952;2023-11-19T14:48:13;11.57;82.29
83596;HTU21D;73564;45.026;38.952;2023-11-19T14:50:40;11.46;82.60
83596;HTU21D;73564;45.026;38.952;2023-11-19T14:53:06;11.42;83.38
83596;HTU21D;73564;45.026;38.952;2023-11-19T14:55:32;11.39;83.22
83596;HTU21D;73564;45.026;38.952;2023-11-19T14:57:58;11.32;83.21
83596;HTU21D;73564;45.026;38.952;2023-11-19T15:00:24;11.29;84.29
83596;HTU21D;73564;45.026;38.952;2023-11-19T15:02:51;11.29;84.66
83596;HTU21D;73564;45.026;38.952;2023-11-19T15:05:17;11.25;83.42
83596;HTU21D;73564;45.026;38.952;2023-11-19T15:07:43;11.23;84.03
83596;HTU21D;73564;45.026;38.952;2023-11-19T15:10:09;11.24;83.90
83596;HTU21D;73564;45.026;38.952;2023-11-19T15:12:37;11.19;83.83
83596;HTU21D;73564;45.026;38.952;2023-11-19T15:15:07;11.23;83.87
83596;HTU21D;73564;45.026;38.952;2023-11-19T15:17:33;11.20;83.49
83596;HTU21D;73564;45.026;38.952;2023-11-19T15:19:59;11.15;83.11
83596;HTU21D;73564;45.026;38.952;2023-11-19T15:22:25;11.09;83.17
83596;HTU21D;73564;45.026;38.952;2023-11-19T15:24:52;11.03;83.13
83596;HTU21D;73564;45.026;38.952;2023-11-19T15:27:18;11.01;83.39
83596;HTU21D;73564;45.026;38.952;2023-11-19T15:29:44;10.97;83.15
83596;HTU21D;73564;45.026;38.952;2023-11-19T15:32:10;10.94;83.37
83596;HTU21D;73564;45.026;38.952;2023-11-19T15:34:36;10.92;83.90
83596;HTU21D;73564;45.026;38.952;2023-11-19T15:37:03;10.88;85.44
83596;HTU21D;73564;45.026;38.952;2023-11-19T15:39:29;10.94;84.77
83596;HTU21D;73564;45.026;38.952;2023-11-19T15:41:56;11.01;83.97
83596;HTU21D;73564;45.026;38.952;2023-11-19T15:44:23;11.04;84.24
83596;HTU21D;73564;45.026;38.952;2023-11-19T15:46:49;11.11;84.41
83596;HTU21D;73564;45.026;38.952;2023-11-19T15:49:16;11.16;83.40
83596;HTU21D;73564;45.026;38.952;2023-11-19T15:51:42;11.16;83.24
83596;HTU21D;73564;45.026;38.952;2023-11-19T15:54:08;11.17;83.20
83596;HTU21D;73564;45.026;38.952;2023-11-19T15:56:34;11.17;83.50
83596;HTU21D;73564;45.026;38.952;2023-11-19T15:58:59;11.17;83.07
83596;HTU21D;73564;45.026;38.952;2023-11-19T16:01:25;11.14;82.94
83596;HTU21D;73564;45.026;38.952;2023-11-19T16:03:53;11.16;83.04
83596;HTU21D;73564;45.026;38.952;2023-11-19T16:06:19;11.15;82.74
83596;HTU21D;73564;45.026;38.952;2023-11-19T16:08:45;11.12;82.75
83596;HTU21D;73564;45.026;38.952;2023-11-19T16:11:11;11.10;82.93
83596;HTU21D;73564;45.026;38.952;2023-11-19T16:13:38;11.12;82.87
83596;HTU21D;73564;45.026;38.952;2023-11-19T16:16:04;11.12;83.34
83596;HTU21D;73564;45.026;38.952;2023-11-19T16:18:30;11.16;82.91
83596;HTU21D;73564;45.026;38.952;2023-11-19T16:20:58;11.18;82.58
83596;HTU21D;73564;45.026;38.952;2023-11-19T16:23:23;11.18;82.62
83596;HTU21D;73564;45.026;38.952;2023-11-19T16:25:49;11.15;82.09
83596;HTU21D;73564;45.026;38.952;2023-11-19T16:28:15;11.10;82.35
83596;HTU21D;73564;45.026;38.952;2023-11-19T16:30:42;11.05;82.21
83596;HTU21D;73564;45.026;38.952;2023-11-19T16:33:08;10.99;82.42
83596;HTU21D;73564;45.026;38.952;2023-11-19T16:35:34;10.98;82.76
83596;HTU21D;73564;45.026;38.952;2023-11-19T16:38:02;10.92;84.20
83596;HTU21D;73564;45.026;38.952;2023-11-19T16:40:28;10.93;83.13
83596;HTU21D;73564;45.026;38.952;2023-11-19T16:42:54;10.92;82.84
83596;HTU21D;73564;45.026;38.952;2023-11-19T16:45:21;10.90;83.04
83596;HTU21D;73564;45.026;38.952;2023-11-19T16:47:47;10.94;83.09
83596;HTU21D;73564;45.026;38.952;2023-11-19T16:50:13;11.02;84.51
83596;HTU21D;73564;45.026;38.952;2023-11-19T16:52:42;11.18;83.87
83596;HTU21D;73564;45.026;38.952;2023-11-19T16:55:08;11.42;84.27
83596;HTU21D;73564;45.026;38.952;2023-11-19T16:57:41;11.64;83.40
83596;HTU21D;73564;45.026;38.952;2023-11-19T17:00:10;11.79;83.10
83596;HTU21D;73564;45.026;38.952;2023-11-19T17:02:39;11.94;82.65
83596;HTU21D;73564;45.026;38.952;2023-11-19T17:05:09;12.07;82.40
83596;HTU21D;73564;45.026;38.952;2023-11-19T17:07:35;12.28;82.40
83596;HTU21D;73564;45.026;38.952;2023-11-19T17:10:01;12.49;82.23
83596;HTU21D;73564;45.026;38.952;2023-11-19T17:12:29;12.69;81.89
83596;HTU21D;73564;45.026;38.952;2023-11-19T17:14:56;12.90;81.64
83596;HTU21D;73564;45.026;38.952;2023-11-19T17:17:33;13.08;81.47
83596;HTU21D;73564;45.026;38.952;2023-11-19T17:20:06;13.24;81.16
83596;HTU21D;73564;45.026;38.952;2023-11-19T17:22:37;13.40;80.72
83596;HTU21D;73564;45.026;38.952;2023-11-19T17:25:05;13.54;80.52